sensor_id;sensor_type;location;lat;lon;timestamp;P1;durP1;ratioP1;P2;durP2;ratioP2
71513;SDS011;59335;46.652;21.272;2022-11-20T00:00:30;10.80;;;6.87;;
71513;SDS011;59335;46.652;21.272;2022-11-20T00:03:32;10.02;;;6.35;;
71513;SDS011;59335;46.652;21.272;2022-11-20T00:06:35;10.40;;;6.57;;
71513;SDS011;59335;46.652;21.272;2022-11-20T00:09:38;9.70;;;6.18;;
71513;SDS011;59335;46.652;21.272;2022-11-20T00:12:40;9.55;;;6.20;;
71513;SDS011;59335;46.652;21.272;2022-11-20T00:15:43;10.60;;;6.57;;
71513;SDS011;59335;46.652;21.272;2022-11-20T00:18:46;9.18;;;5.72;;
71513;SDS011;59335;46.652;21.272;2022-11-20T00:21:48;10.10;;;6.40;;
71513;SDS011;59335;46.652;21.272;2022-11-20T00:24:53;10.10;;;6.38;;
71513;SDS011;59335;46.652;21.272;2022-11-20T00:27:56;10.65;;;6.60;;
71513;SDS011;59335;46.652;21.272;2022-11-20T00:31:05;10.10;;;6.57;;
71513;SDS011;59335;46.652;21.272;2022-11-20T00:34:09;10.32;;;6.65;;
71513;SDS011;59335;46.652;21.272;2022-11-20T00:37:12;10.35;;;7.13;;
71513;SDS011;59335;46.652;21.272;2022-11-20T00:40:14;9.82;;;6.65;;
71513;SDS011;59335;46.652;21.272;2022-11-20T00:43:17;9.98;;;6.18;;
71513;SDS011;59335;46.652;21.272;2022-11-20T00:46:24;11.40;;;6.93;;
71513;SDS011;59335;46.652;21.272;2022-11-20T00:49:28;10.07;;;6.80;;
71513;SDS011;59335;46.652;21.272;2022-11-20T00:52:30;10.88;;;6.53;;
71513;SDS011;59335;46.652;21.272;2022-11-20T00:55:33;9.52;;;6.15;;
71513;SDS011;59335;46.652;21.272;2022-11-20T00:58:37;10.57;;;6.70;;
71513;SDS011;59335;46.652;21.272;2022-11-20T01:01:40;10.37;;;6.20;;
71513;SDS011;59335;46.652;21.272;2022-11-20T01:04:43;10.50;;;7.20;;
71513;SDS011;59335;46.652;21.272;2022-11-20T01:07:46;10.90;;;6.95;;
71513;SDS011;59335;46.652;21.272;2022-11-20T01:10:49;9.63;;;6.38;;
71513;SDS011;59335;46.652;21.272;2022-11-20T01:13:52;10.60;;;6.50;;
71513;SDS011;59335;46.652;21.272;2022-11-20T01:16:55;10.63;;;6.43;;
71513;SDS011;59335;46.652;21.272;2022-11-20T01:19:57;9.25;;;5.70;;
71513;SDS011;59335;46.652;21.272;2022-11-20T01:23:00;10.48;;;6.78;;
71513;SDS011;59335;46.652;21.272;2022-11-20T01:26:03;9.02;;;5.80;;
71513;SDS011;59335;46.652;21.272;2022-11-20T01:29:09;10.43;;;6.70;;
71513;SDS011;59335;46.652;21.272;2022-11-20T01:32:15;10.03;;;6.40;;
71513;SDS011;59335;46.652;21.272;2022-11-20T01:35:17;10.43;;;6.32;;
71513;SDS011;59335;46.652;21.272;2022-11-20T01:38:20;10.27;;;6.53;;
71513;SDS011;59335;46.652;21.272;2022-11-20T01:41:25;9.32;;;6.40;;
71513;SDS011;59335;46.652;21.272;2022-11-20T01:44:49;8.88;;;6.03;;
71513;SDS011;59335;46.652;21.272;2022-11-20T01:47:58;9.80;;;6.00;;
71513;SDS011;59335;46.652;21.272;2022-11-20T01:51:00;9.48;;;6.22;;
71513;SDS011;59335;46.652;21.272;2022-11-20T01:54:07;9.25;;;6.35;;
71513;SDS011;59335;46.652;21.272;2022-11-20T01:57:13;9.88;;;6.57;;
71513;SDS011;59335;46.652;21.272;2022-11-20T02:00:18;10.45;;;6.85;;
71513;SDS011;59335;46.652;21.272;2022-11-20T02:03:22;11.17;;;6.50;;
71513;SDS011;59335;46.652;21.272;2022-11-20T02:06:27;9.60;;;6.68;;
71513;SDS011;59335;46.652;21.272;2022-11-20T02:09:33;11.00;;;7.03;;
71513;SDS011;59335;46.652;21.272;2022-11-20T02:12:36;10.25;;;6.70;;
71513;SDS011;59335;46.652;21.272;2022-11-20T02:15:57;10.23;;;6.93;;
71513;SDS011;59335;46.652;21.272;2022-11-20T02:19:01;9.47;;;6.43;;
71513;SDS011;59335;46.652;21.272;2022-11-20T02:22:13;10.18;;;6.30;;
71513;SDS011;59335;46.652;21.272;2022-11-20T02:25:20;9.35;;;6.53;;
71513;SDS011;59335;46.652;21.272;2022-11-20T02:28:25;9.93;;;6.13;;
71513;SDS011;59335;46.652;21.272;2022-11-20T02:31:27;9.18;;;6.35;;
71513;SDS011;59335;46.652;21.272;2022-11-20T02:34:30;8.83;;;5.80;;
71513;SDS011;59335;46.652;21.272;2022-11-20T02:37:34;9.68;;;6.25;;
71513;SDS011;59335;46.652;21.272;2022-11-20T02:40:39;10.63;;;6.75;;
71513;SDS011;59335;46.652;21.272;2022-11-20T02:43:42;10.60;;;6.28;;
71513;SDS011;59335;46.652;21.272;2022-11-20T02:46:45;9.60;;;6.32;;
71513;SDS011;59335;46.652;21.272;2022-11-20T02:49:49;10.37;;;6.60;;
71513;SDS011;59335;46.652;21.272;2022-11-20T02:52:51;9.77;;;6.25;;
71513;SDS011;59335;46.652;21.272;2022-11-20T02:55:54;10.85;;;6.40;;
71513;SDS011;59335;46.652;21.272;2022-11-20T02:58:57;9.20;;;6.45;;
71513;SDS011;59335;46.652;21.272;2022-11-20T03:02:00;10.02;;;6.28;;
71513;SDS011;59335;46.652;21.272;2022-11-20T03:05:02;9.67;;;6.33;;
71513;SDS011;59335;46.652;21.272;2022-11-20T03:08:05;9.82;;;6.22;;
71513;SDS011;59335;46.652;21.272;2022-11-20T03:11:08;9.27;;;5.80;;
71513;SDS011;59335;46.652;21.272;2022-11-20T03:14:11;9.27;;;5.90;;
71513;SDS011;59335;46.652;21.272;2022-11-20T03:17:14;9.60;;;5.90;;
71513;SDS011;59335;46.652;21.272;2022-11-20T03:20:18;10.00;;;6.10;;
71513;SDS011;59335;46.652;21.272;2022-11-20T03:23:20;9.55;;;6.30;;
71513;SDS011;59335;46.652;21.272;2022-11-20T03:26:24;9.93;;;6.30;;
71513;SDS011;59335;46.652;21.272;2022-11-20T03:29:28;8.15;;;5.88;;
71513;SDS011;59335;46.652;21.272;2022-11-20T03:32:30;10.55;;;6.20;;
71513;SDS011;59335;46.652;21.272;2022-11-20T03:35:33;8.97;;;5.83;;
71513;SDS011;59335;46.652;21.272;2022-11-20T03:38:36;8.60;;;5.82;;
71513;SDS011;59335;46.652;21.272;2022-11-20T03:41:39;10.57;;;6.55;;
71513;SDS011;59335;46.652;21.272;2022-11-20T03:44:44;9.50;;;6.43;;
71513;SDS011;59335;46.652;21.272;2022-11-20T03:47:46;9.07;;;5.85;;
71513;SDS011;59335;46.652;21.272;2022-11-20T03:50:49;9.13;;;5.93;;
71513;SDS011;59335;46.652;21.272;2022-11-20T03:53:52;8.88;;;6.25;;
71513;SDS011;59335;46.652;21.272;2022-11-20T03:56:57;9.23;;;6.43;;
71513;SDS011;59335;46.652;21.272;2022-11-20T03:59:59;9.93;;;6.30;;
71513;SDS011;59335;46.652;21.272;2022-11-20T04:03:05;10.10;;;6.25;;
71513;SDS011;59335;46.652;21.272;2022-11-20T04:06:08;9.47;;;6.47;;
71513;SDS011;59335;46.652;21.272;2022-11-20T04:09:13;9.68;;;6.10;;
71513;SDS011;59335;46.652;21.272;2022-11-20T04:12:15;9.07;;;5.75;;
71513;SDS011;59335;46.652;21.272;2022-11-20T04:15:18;8.98;;;5.85;;
71513;SDS011;59335;46.652;21.272;2022-11-20T04:18:21;9.48;;;5.65;;
71513;SDS011;59335;46.652;21.272;2022-11-20T04:21:24;8.83;;;5.40;;
71513;SDS011;59335;46.652;21.272;2022-11-20T04:24:27;8.60;;;5.70;;
71513;SDS011;59335;46.652;21.272;2022-11-20T04:27:30;9.20;;;5.88;;
71513;SDS011;59335;46.652;21.272;2022-11-20T04:30:32;9.43;;;6.10;;
71513;SDS011;59335;46.652;21.272;2022-11-20T04:33:36;8.88;;;5.53;;
71513;SDS011;59335;46.652;21.272;2022-11-20T04:36:39;8.90;;;5.60;;
71513;SDS011;59335;46.652;21.272;2022-11-20T04:39:42;9.70;;;6.15;;
71513;SDS011;59335;46.652;21.272;2022-11-20T04:42:44;8.55;;;5.88;;
71513;SDS011;59335;46.652;21.272;2022-11-20T04:45:53;8.75;;;5.40;;
71513;SDS011;59335;46.652;21.272;2022-11-20T04:48:57;9.80;;;5.57;;
71513;SDS011;59335;46.652;21.272;2022-11-20T04:51:59;8.43;;;5.73;;
71513;SDS011;59335;46.652;21.272;2022-11-20T04:55:02;9.13;;;5.90;;
71513;SDS011;59335;46.652;21.272;2022-11-20T04:58:05;8.55;;;5.80;;
71513;SDS011;59335;46.652;21.272;2022-11-20T05:01:11;8.23;;;5.30;;
71513;SDS011;59335;46.652;21.272;2022-11-20T05:04:16;8.32;;;5.63;;
71513;SDS011;59335;46.652;21.272;2022-11-20T05:07:19;9.07;;;5.57;;
71513;SDS011;59335;46.652;21.272;2022-11-20T05:10:22;8.38;;;5.57;;
71513;SDS011;59335;46.652;21.272;2022-11-20T05:13:24;8.25;;;5.63;;
71513;SDS011;59335;46.652;21.272;2022-11-20T05:16:26;8.85;;;5.82;;
71513;SDS011;59335;46.652;21.272;2022-11-20T05:19:29;8.60;;;5.53;;
71513;SDS011;59335;46.652;21.272;2022-11-20T05:22:32;7.93;;;5.07;;
71513;SDS011;59335;46.652;21.272;2022-11-20T05:25:37;8.77;;;5.68;;
71513;SDS011;59335;46.652;21.272;2022-11-20T05:28:39;7.65;;;5.25;;
71513;SDS011;59335;46.652;21.272;2022-11-20T05:31:42;7.97;;;5.40;;
71513;SDS011;59335;46.652;21.272;2022-11-20T05:34:45;8.00;;;5.40;;
71513;SDS011;59335;46.652;21.272;2022-11-20T05:37:48;8.70;;;5.57;;
71513;SDS011;59335;46.652;21.272;2022-11-20T05:40:50;9.27;;;5.97;;
71513;SDS011;59335;46.652;21.272;2022-11-20T05:43:53;8.65;;;5.60;;
71513;SDS011;59335;46.652;21.272;2022-11-20T05:46:55;8.70;;;5.70;;
71513;SDS011;59335;46.652;21.272;2022-11-20T05:49:58;7.90;;;5.18;;
71513;SDS011;59335;46.652;21.272;2022-11-20T05:53:00;8.37;;;4.90;;
71513;SDS011;59335;46.652;21.272;2022-11-20T05:56:06;8.20;;;5.45;;
71513;SDS011;59335;46.652;21.272;2022-11-20T05:59:15;8.52;;;5.40;;
71513;SDS011;59335;46.652;21.272;2022-11-20T06:02:18;9.93;;;5.78;;
71513;SDS011;59335;46.652;21.272;2022-11-20T06:05:21;10.63;;;5.53;;
71513;SDS011;59335;46.652;21.272;2022-11-20T06:08:23;8.37;;;5.30;;
71513;SDS011;59335;46.652;21.272;2022-11-20T06:11:25;8.95;;;5.47;;
71513;SDS011;59335;46.652;21.272;2022-11-20T06:14:28;8.77;;;5.28;;
71513;SDS011;59335;46.652;21.272;2022-11-20T06:17:30;8.18;;;5.38;;
71513;SDS011;59335;46.652;21.272;2022-11-20T06:20:33;8.38;;;4.93;;
71513;SDS011;59335;46.652;21.272;2022-11-20T06:23:43;8.13;;;5.07;;
71513;SDS011;59335;46.652;21.272;2022-11-20T06:26:47;8.20;;;5.18;;
71513;SDS011;59335;46.652;21.272;2022-11-20T06:29:50;8.65;;;5.32;;
71513;SDS011;59335;46.652;21.272;2022-11-20T06:32:52;8.27;;;5.32;;
71513;SDS011;59335;46.652;21.272;2022-11-20T06:35:58;8.10;;;5.30;;
71513;SDS011;59335;46.652;21.272;2022-11-20T06:39:08;7.27;;;4.80;;
71513;SDS011;59335;46.652;21.272;2022-11-20T06:42:10;8.13;;;5.40;;
71513;SDS011;59335;46.652;21.272;2022-11-20T06:45:13;8.65;;;5.53;;
71513;SDS011;59335;46.652;21.272;2022-11-20T06:48:15;8.98;;;5.40;;
71513;SDS011;59335;46.652;21.272;2022-11-20T06:51:18;8.15;;;5.35;;
71513;SDS011;59335;46.652;21.272;2022-11-20T06:54:20;7.60;;;5.00;;
71513;SDS011;59335;46.652;21.272;2022-11-20T06:57:23;8.27;;;5.00;;
71513;SDS011;59335;46.652;21.272;2022-11-20T07:00:25;7.95;;;4.88;;
71513;SDS011;59335;46.652;21.272;2022-11-20T07:03:28;7.82;;;5.28;;
71513;SDS011;59335;46.652;21.272;2022-11-20T07:06:31;7.90;;;5.30;;
71513;SDS011;59335;46.652;21.272;2022-11-20T07:09:34;8.37;;;5.07;;
71513;SDS011;59335;46.652;21.272;2022-11-20T07:12:37;8.85;;;5.65;;
71513;SDS011;59335;46.652;21.272;2022-11-20T07:15:39;8.52;;;5.57;;
71513;SDS011;59335;46.652;21.272;2022-11-20T07:18:42;8.57;;;5.40;;
71513;SDS011;59335;46.652;21.272;2022-11-20T07:21:51;7.90;;;5.40;;
71513;SDS011;59335;46.652;21.272;2022-11-20T07:24:54;8.37;;;5.27;;
71513;SDS011;59335;46.652;21.272;2022-11-20T07:28:00;8.13;;;5.40;;
71513;SDS011;59335;46.652;21.272;2022-11-20T07:31:03;8.20;;;5.35;;
71513;SDS011;59335;46.652;21.272;2022-11-20T07:34:07;8.38;;;5.15;;
71513;SDS011;59335;46.652;21.272;2022-11-20T07:37:09;8.50;;;5.70;;
71513;SDS011;59335;46.652;21.272;2022-11-20T07:40:15;8.60;;;5.30;;
71513;SDS011;59335;46.652;21.272;2022-11-20T07:43:18;7.25;;;4.97;;
71513;SDS011;59335;46.652;21.272;2022-11-20T07:46:21;8.65;;;5.50;;
71513;SDS011;59335;46.652;21.272;2022-11-20T07:49:24;9.70;;;5.28;;
71513;SDS011;59335;46.652;21.272;2022-11-20T07:52:28;8.60;;;5.25;;
71513;SDS011;59335;46.652;21.272;2022-11-20T07:55:31;8.43;;;5.33;;
71513;SDS011;59335;46.652;21.272;2022-11-20T07:58:34;8.05;;;4.97;;
71513;SDS011;59335;46.652;21.272;2022-11-20T08:01:37;7.93;;;5.60;;
71513;SDS011;59335;46.652;21.272;2022-11-20T08:04:40;7.97;;;5.03;;
71513;SDS011;59335;46.652;21.272;2022-11-20T08:07:43;8.52;;;5.32;;
71513;SDS011;59335;46.652;21.272;2022-11-20T08:10:46;8.03;;;5.07;;
71513;SDS011;59335;46.652;21.272;2022-11-20T08:13:48;8.07;;;5.38;;
71513;SDS011;59335;46.652;21.272;2022-11-20T08:17:09;8.27;;;5.45;;
71513;SDS011;59335;46.652;21.272;2022-11-20T08:20:12;8.70;;;5.38;;
71513;SDS011;59335;46.652;21.272;2022-11-20T08:23:15;8.90;;;5.05;;
71513;SDS011;59335;46.652;21.272;2022-11-20T08:26:17;7.73;;;4.90;;
71513;SDS011;59335;46.652;21.272;2022-11-20T08:29:20;7.85;;;5.10;;
71513;SDS011;59335;46.652;21.272;2022-11-20T08:32:25;8.05;;;5.30;;
71513;SDS011;59335;46.652;21.272;2022-11-20T08:35:28;8.55;;;5.47;;
71513;SDS011;59335;46.652;21.272;2022-11-20T08:38:30;8.07;;;5.10;;
71513;SDS011;59335;46.652;21.272;2022-11-20T08:41:34;8.10;;;4.70;;
71513;SDS011;59335;46.652;21.272;2022-11-20T08:44:36;8.95;;;5.40;;
71513;SDS011;59335;46.652;21.272;2022-11-20T08:47:39;7.30;;;4.68;;
71513;SDS011;59335;46.652;21.272;2022-11-20T08:50:42;7.35;;;5.03;;
71513;SDS011;59335;46.652;21.272;2022-11-20T08:53:45;7.90;;;5.05;;
71513;SDS011;59335;46.652;21.272;2022-11-20T08:56:48;7.90;;;4.60;;
71513;SDS011;59335;46.652;21.272;2022-11-20T08:59:50;7.97;;;4.55;;
71513;SDS011;59335;46.652;21.272;2022-11-20T09:03:07;7.40;;;5.05;;
71513;SDS011;59335;46.652;21.272;2022-11-20T09:06:11;7.38;;;4.70;;
71513;SDS011;59335;46.652;21.272;2022-11-20T09:09:14;7.75;;;4.80;;
71513;SDS011;59335;46.652;21.272;2022-11-20T09:12:16;7.37;;;4.63;;
71513;SDS011;59335;46.652;21.272;2022-11-20T09:15:19;7.25;;;4.53;;
71513;SDS011;59335;46.652;21.272;2022-11-20T09:18:21;7.30;;;4.50;;
71513;SDS011;59335;46.652;21.272;2022-11-20T09:21:25;8.10;;;4.70;;
71513;SDS011;59335;46.652;21.272;2022-11-20T09:24:27;7.40;;;4.68;;
71513;SDS011;59335;46.652;21.272;2022-11-20T09:27:30;8.43;;;4.67;;
71513;SDS011;59335;46.652;21.272;2022-11-20T09:30:32;7.60;;;4.38;;
71513;SDS011;59335;46.652;21.272;2022-11-20T09:33:35;7.57;;;4.95;;
71513;SDS011;59335;46.652;21.272;2022-11-20T09:36:38;7.35;;;4.90;;
71513;SDS011;59335;46.652;21.272;2022-11-20T09:39:42;8.38;;;5.22;;
71513;SDS011;59335;46.652;21.272;2022-11-20T09:42:47;7.63;;;4.90;;
71513;SDS011;59335;46.652;21.272;2022-11-20T09:57:01;7.95;;;4.50;;
71513;SDS011;59335;46.652;21.272;2022-11-20T10:00:09;7.10;;;4.60;;
71513;SDS011;59335;46.652;21.272;2022-11-20T10:03:18;6.95;;;4.78;;
71513;SDS011;59335;46.652;21.272;2022-11-20T10:06:30;6.97;;;4.50;;
71513;SDS011;59335;46.652;21.272;2022-11-20T10:09:34;7.53;;;4.72;;
71513;SDS011;59335;46.652;21.272;2022-11-20T10:15:56;7.33;;;4.87;;
71513;SDS011;59335;46.652;21.272;2022-11-20T10:22:35;6.55;;;4.50;;
71513;SDS011;59335;46.652;21.272;2022-11-20T10:32:58;7.93;;;4.73;;
71513;SDS011;59335;46.652;21.272;2022-11-20T10:42:49;7.50;;;4.55;;
71513;SDS011;59335;46.652;21.272;2022-11-20T10:46:06;6.68;;;4.18;;
71513;SDS011;59335;46.652;21.272;2022-11-20T10:49:16;7.80;;;4.60;;
71513;SDS011;59335;46.652;21.272;2022-11-20T10:55:45;7.30;;;4.72;;
71513;SDS011;59335;46.652;21.272;2022-11-20T10:59:05;7.35;;;4.90;;
71513;SDS011;59335;46.652;21.272;2022-11-20T11:06:38;7.77;;;4.50;;
71513;SDS011;59335;46.652;21.272;2022-11-20T11:09:30;6.78;;;4.32;;
71513;SDS011;59335;46.652;21.272;2022-11-20T11:12:36;7.50;;;4.82;;
71513;SDS011;59335;46.652;21.272;2022-11-20T11:15:40;7.15;;;4.20;;
71513;SDS011;59335;46.652;21.272;2022-11-20T11:18:43;7.35;;;4.50;;
71513;SDS011;59335;46.652;21.272;2022-11-20T11:21:55;7.03;;;4.27;;
71513;SDS011;59335;46.652;21.272;2022-11-20T11:24:58;6.63;;;4.30;;
71513;SDS011;59335;46.652;21.272;2022-11-20T11:28:19;7.85;;;4.85;;
71513;SDS011;59335;46.652;21.272;2022-11-20T11:31:24;6.95;;;4.30;;
71513;SDS011;59335;46.652;21.272;2022-11-20T11:34:37;6.65;;;4.20;;
71513;SDS011;59335;46.652;21.272;2022-11-20T11:37:40;6.97;;;4.53;;
71513;SDS011;59335;46.652;21.272;2022-11-20T11:40:43;7.18;;;4.22;;
71513;SDS011;59335;46.652;21.272;2022-11-20T11:43:53;6.88;;;4.47;;
71513;SDS011;59335;46.652;21.272;2022-11-20T11:50:27;6.43;;;4.05;;
71513;SDS011;59335;46.652;21.272;2022-11-20T11:53:30;6.80;;;4.23;;
71513;SDS011;59335;46.652;21.272;2022-11-20T11:56:34;6.88;;;4.30;;
71513;SDS011;59335;46.652;21.272;2022-11-20T12:06:53;6.80;;;4.38;;
71513;SDS011;59335;46.652;21.272;2022-11-20T12:16:58;6.43;;;4.05;;
71513;SDS011;59335;46.652;21.272;2022-11-20T12:20:00;7.47;;;4.55;;
71513;SDS011;59335;46.652;21.272;2022-11-20T12:23:21;7.05;;;4.53;;
71513;SDS011;59335;46.652;21.272;2022-11-20T12:30:07;6.82;;;4.43;;
71513;SDS011;59335;46.652;21.272;2022-11-20T12:33:30;6.85;;;4.45;;
71513;SDS011;59335;46.652;21.272;2022-11-20T12:37:05;7.50;;;4.28;;
71513;SDS011;59335;46.652;21.272;2022-11-20T12:46:46;6.82;;;4.18;;
71513;SDS011;59335;46.652;21.272;2022-11-20T12:53:23;6.07;;;3.92;;
71513;SDS011;59335;46.652;21.272;2022-11-20T13:06:39;7.05;;;4.18;;
71513;SDS011;59335;46.652;21.272;2022-11-20T13:09:45;6.65;;;4.00;;
71513;SDS011;59335;46.652;21.272;2022-11-20T13:12:57;6.93;;;4.35;;
71513;SDS011;59335;46.652;21.272;2022-11-20T13:16:25;6.60;;;4.17;;
71513;SDS011;59335;46.652;21.272;2022-11-20T13:19:52;6.35;;;3.70;;
71513;SDS011;59335;46.652;21.272;2022-11-20T13:22:56;6.68;;;3.95;;
71513;SDS011;59335;46.652;21.272;2022-11-20T13:26:04;6.30;;;3.90;;
71513;SDS011;59335;46.652;21.272;2022-11-20T13:29:18;7.10;;;4.05;;
71513;SDS011;59335;46.652;21.272;2022-11-20T13:32:21;6.57;;;4.10;;
71513;SDS011;59335;46.652;21.272;2022-11-20T13:35:28;6.60;;;3.88;;
71513;SDS011;59335;46.652;21.272;2022-11-20T13:38:44;6.47;;;4.13;;
71513;SDS011;59335;46.652;21.272;2022-11-20T13:41:54;5.93;;;3.70;;
71513;SDS011;59335;46.652;21.272;2022-11-20T13:45:02;6.10;;;3.80;;
71513;SDS011;59335;46.652;21.272;2022-11-20T13:48:22;6.67;;;3.80;;
71513;SDS011;59335;46.652;21.272;2022-11-20T13:58:56;6.40;;;3.70;;
71513;SDS011;59335;46.652;21.272;2022-11-20T14:02:15;6.97;;;3.90;;
71513;SDS011;59335;46.652;21.272;2022-11-20T14:05:21;6.37;;;3.73;;
71513;SDS011;59335;46.652;21.272;2022-11-20T14:08:47;7.07;;;3.97;;
71513;SDS011;59335;46.652;21.272;2022-11-20T14:11:49;6.65;;;4.00;;
71513;SDS011;59335;46.652;21.272;2022-11-20T14:14:52;7.32;;;3.90;;
71513;SDS011;59335;46.652;21.272;2022-11-20T14:17:57;6.82;;;4.03;;
71513;SDS011;59335;46.652;21.272;2022-11-20T14:21:01;5.90;;;3.77;;
71513;SDS011;59335;46.652;21.272;2022-11-20T14:24:06;7.13;;;4.18;;
71513;SDS011;59335;46.652;21.272;2022-11-20T14:27:14;6.28;;;3.80;;
71513;SDS011;59335;46.652;21.272;2022-11-20T14:30:25;7.47;;;3.90;;
71513;SDS011;59335;46.652;21.272;2022-11-20T14:33:31;6.20;;;3.90;;
71513;SDS011;59335;46.652;21.272;2022-11-20T14:36:35;6.37;;;3.63;;
71513;SDS011;59335;46.652;21.272;2022-11-20T14:39:41;6.05;;;3.40;;
71513;SDS011;59335;46.652;21.272;2022-11-20T14:42:50;6.63;;;4.03;;
71513;SDS011;59335;46.652;21.272;2022-11-20T14:45:56;7.00;;;3.83;;
71513;SDS011;59335;46.652;21.272;2022-11-20T14:49:05;6.22;;;3.88;;
71513;SDS011;59335;46.652;21.272;2022-11-20T14:52:17;6.53;;;3.60;;
71513;SDS011;59335;46.652;21.272;2022-11-20T14:58:39;6.18;;;3.80;;
71513;SDS011;59335;46.652;21.272;2022-11-20T15:01:42;6.82;;;4.03;;
71513;SDS011;59335;46.652;21.272;2022-11-20T15:05:00;6.80;;;3.97;;
71513;SDS011;59335;46.652;21.272;2022-11-20T15:08:07;6.93;;;3.70;;
71513;SDS011;59335;46.652;21.272;2022-11-20T15:11:25;6.38;;;3.55;;
71513;SDS011;59335;46.652;21.272;2022-11-20T15:14:32;6.63;;;4.28;;
71513;SDS011;59335;46.652;21.272;2022-11-20T15:17:40;6.68;;;3.92;;
71513;SDS011;59335;46.652;21.272;2022-11-20T15:20:45;7.05;;;3.95;;
71513;SDS011;59335;46.652;21.272;2022-11-20T15:23:48;6.60;;;3.70;;
71513;SDS011;59335;46.652;21.272;2022-11-20T15:26:53;6.00;;;3.67;;
71513;SDS011;59335;46.652;21.272;2022-11-20T15:29:57;6.03;;;3.65;;
71513;SDS011;59335;46.652;21.272;2022-11-20T15:33:00;6.60;;;3.80;;
71513;SDS011;59335;46.652;21.272;2022-11-20T15:36:03;5.95;;;3.40;;
71513;SDS011;59335;46.652;21.272;2022-11-20T15:39:07;6.67;;;3.80;;
71513;SDS011;59335;46.652;21.272;2022-11-20T15:42:11;6.50;;;3.58;;
71513;SDS011;59335;46.652;21.272;2022-11-20T15:45:14;7.07;;;4.03;;
71513;SDS011;59335;46.652;21.272;2022-11-20T15:48:19;6.85;;;3.90;;
71513;SDS011;59335;46.652;21.272;2022-11-20T15:51:28;6.15;;;3.95;;
71513;SDS011;59335;46.652;21.272;2022-11-20T15:54:32;6.07;;;3.70;;
71513;SDS011;59335;46.652;21.272;2022-11-20T15:57:35;6.68;;;3.70;;
71513;SDS011;59335;46.652;21.272;2022-11-20T16:00:39;6.15;;;3.80;;
71513;SDS011;59335;46.652;21.272;2022-11-20T16:03:42;7.38;;;4.22;;
71513;SDS011;59335;46.652;21.272;2022-11-20T16:06:45;7.75;;;4.07;;
71513;SDS011;59335;46.652;21.272;2022-11-20T16:09:49;6.70;;;3.70;;
71513;SDS011;59335;46.652;21.272;2022-11-20T16:12:52;6.25;;;3.60;;
71513;SDS011;59335;46.652;21.272;2022-11-20T16:16:22;6.55;;;3.75;;
71513;SDS011;59335;46.652;21.272;2022-11-20T16:19:32;6.43;;;3.90;;
71513;SDS011;59335;46.652;21.272;2022-11-20T16:22:35;6.85;;;3.80;;
71513;SDS011;59335;46.652;21.272;2022-11-20T16:25:39;7.33;;;3.90;;
71513;SDS011;59335;46.652;21.272;2022-11-20T16:28:41;6.95;;;4.07;;
71513;SDS011;59335;46.652;21.272;2022-11-20T16:31:45;6.88;;;4.07;;
71513;SDS011;59335;46.652;21.272;2022-11-20T16:34:49;6.53;;;3.80;;
71513;SDS011;59335;46.652;21.272;2022-11-20T16:37:54;7.07;;;3.53;;
71513;SDS011;59335;46.652;21.272;2022-11-20T16:41:02;7.10;;;3.70;;
71513;SDS011;59335;46.652;21.272;2022-11-20T16:44:08;6.47;;;3.90;;
71513;SDS011;59335;46.652;21.272;2022-11-20T16:47:12;7.38;;;4.32;;
71513;SDS011;59335;46.652;21.272;2022-11-20T16:50:15;7.53;;;4.20;;
71513;SDS011;59335;46.652;21.272;2022-11-20T16:53:18;6.88;;;4.00;;
71513;SDS011;59335;46.652;21.272;2022-11-20T16:56:24;6.47;;;3.90;;
71513;SDS011;59335;46.652;21.272;2022-11-20T16:59:28;6.63;;;3.88;;
71513;SDS011;59335;46.652;21.272;2022-11-20T17:02:31;7.00;;;4.28;;
71513;SDS011;59335;46.652;21.272;2022-11-20T17:05:35;6.63;;;4.10;;
71513;SDS011;59335;46.652;21.272;2022-11-20T17:08:56;7.53;;;4.20;;
71513;SDS011;59335;46.652;21.272;2022-11-20T17:11:59;6.50;;;4.00;;
71513;SDS011;59335;46.652;21.272;2022-11-20T17:15:02;6.38;;;3.88;;
71513;SDS011;59335;46.652;21.272;2022-11-20T17:18:05;7.15;;;4.57;;
71513;SDS011;59335;46.652;21.272;2022-11-20T17:21:08;6.55;;;3.92;;
71513;SDS011;59335;46.652;21.272;2022-11-20T17:24:11;7.13;;;3.80;;
71513;SDS011;59335;46.652;21.272;2022-11-20T17:27:15;6.67;;;4.00;;
71513;SDS011;59335;46.652;21.272;2022-11-20T17:30:20;7.28;;;4.10;;
71513;SDS011;59335;46.652;21.272;2022-11-20T17:33:23;6.70;;;4.22;;
71513;SDS011;59335;46.652;21.272;2022-11-20T17:36:26;7.03;;;4.00;;
71513;SDS011;59335;46.652;21.272;2022-11-20T17:39:30;6.72;;;4.40;;
71513;SDS011;59335;46.652;21.272;2022-11-20T17:42:34;6.63;;;4.30;;
71513;SDS011;59335;46.652;21.272;2022-11-20T17:45:39;6.88;;;4.20;;
71513;SDS011;59335;46.652;21.272;2022-11-20T17:48:42;6.90;;;4.47;;
71513;SDS011;59335;46.652;21.272;2022-11-20T17:51:46;6.78;;;4.20;;
71513;SDS011;59335;46.652;21.272;2022-11-20T17:54:49;6.80;;;4.50;;
71513;SDS011;59335;46.652;21.272;2022-11-20T17:57:54;7.13;;;4.00;;
71513;SDS011;59335;46.652;21.272;2022-11-20T18:01:04;7.05;;;4.28;;
71513;SDS011;59335;46.652;21.272;2022-11-20T18:04:10;7.18;;;4.45;;
71513;SDS011;59335;46.652;21.272;2022-11-20T18:07:15;7.45;;;4.63;;
71513;SDS011;59335;46.652;21.272;2022-11-20T18:10:18;8.55;;;4.45;;
71513;SDS011;59335;46.652;21.272;2022-11-20T18:13:21;7.17;;;4.13;;
71513;SDS011;59335;46.652;21.272;2022-11-20T18:16:50;8.15;;;4.70;;
71513;SDS011;59335;46.652;21.272;2022-11-20T18:19:55;7.65;;;4.43;;
71513;SDS011;59335;46.652;21.272;2022-11-20T18:23:18;6.78;;;4.30;;
71513;SDS011;59335;46.652;21.272;2022-11-20T18:26:20;7.50;;;4.43;;
71513;SDS011;59335;46.652;21.272;2022-11-20T18:29:26;8.30;;;4.30;;
71513;SDS011;59335;46.652;21.272;2022-11-20T18:32:29;7.43;;;4.30;;
71513;SDS011;59335;46.652;21.272;2022-11-20T18:35:32;7.20;;;4.13;;
71513;SDS011;59335;46.652;21.272;2022-11-20T18:38:42;7.57;;;4.30;;
71513;SDS011;59335;46.652;21.272;2022-11-20T18:41:46;7.32;;;4.40;;
71513;SDS011;59335;46.652;21.272;2022-11-20T18:45:08;7.97;;;4.40;;
71513;SDS011;59335;46.652;21.272;2022-11-20T18:48:11;7.13;;;4.32;;
71513;SDS011;59335;46.652;21.272;2022-11-20T18:51:14;7.07;;;4.47;;
71513;SDS011;59335;46.652;21.272;2022-11-20T18:54:18;8.27;;;4.47;;
71513;SDS011;59335;46.652;21.272;2022-11-20T18:57:23;8.38;;;4.70;;
71513;SDS011;59335;46.652;21.272;2022-11-20T19:00:28;8.67;;;5.00;;
71513;SDS011;59335;46.652;21.272;2022-11-20T19:03:31;8.35;;;4.55;;
71513;SDS011;59335;46.652;21.272;2022-11-20T19:06:35;8.35;;;4.80;;
71513;SDS011;59335;46.652;21.272;2022-11-20T19:09:43;8.07;;;4.85;;
71513;SDS011;59335;46.652;21.272;2022-11-20T19:12:52;8.02;;;5.00;;
71513;SDS011;59335;46.652;21.272;2022-11-20T19:16:00;7.20;;;4.60;;
71513;SDS011;59335;46.652;21.272;2022-11-20T19:19:15;7.07;;;4.50;;
71513;SDS011;59335;46.652;21.272;2022-11-20T19:22:19;7.75;;;4.45;;
71513;SDS011;59335;46.652;21.272;2022-11-20T19:25:23;8.25;;;4.82;;
71513;SDS011;59335;46.652;21.272;2022-11-20T19:28:31;7.72;;;4.70;;
71513;SDS011;59335;46.652;21.272;2022-11-20T19:31:35;8.40;;;4.83;;
71513;SDS011;59335;46.652;21.272;2022-11-20T19:34:38;7.97;;;4.88;;
71513;SDS011;59335;46.652;21.272;2022-11-20T19:37:42;9.13;;;5.53;;
71513;SDS011;59335;46.652;21.272;2022-11-20T19:40:45;8.55;;;5.28;;
71513;SDS011;59335;46.652;21.272;2022-11-20T19:43:49;8.90;;;4.90;;
71513;SDS011;59335;46.652;21.272;2022-11-20T19:46:51;8.13;;;5.10;;
71513;SDS011;59335;46.652;21.272;2022-11-20T19:49:54;7.47;;;4.70;;